<?xml version="1.0" encoding="UTF-8" standalone="no" ?>
<gpx xmlns="http://www.topografix.com/GPX/1/1" xmlns:xsi="http://www.w3.org/2001/XMLSchema-instance" xsi:schemaLocation="http://www.topografix.com/GPX/1/1 http://www.topografix.com/GPX/1/1/gpx.xsd" version="1.1" creator="VisuGPX - https://www.visugpx.com">
  <metadata>
    <name>Boule Catellazo - Castellazo</name>
  </metadata>
  <trk>
    <name><![CDATA[Boule Catellazo - Castellazo_1]]></name>
    <trkseg>
      <trkpt lat="42.33445" lon="0.05718">
        <ele>954</ele>
        <time>2017-02-19T19:17:35Z</time>
      </trkpt>
      <trkpt lat="42.33536" lon="0.05794">
        <ele>926</ele>
        <time>2017-02-19T19:19:35Z</time>
      </trkpt>
      <trkpt lat="42.33553" lon="0.05819">
        <ele>920</ele>
        <time>2017-02-19T19:21:35Z</time>
      </trkpt>
      <trkpt lat="42.33579" lon="0.05806">
        <ele>915</ele>
        <time>2017-02-19T19:23:35Z</time>
      </trkpt>
      <trkpt lat="42.33568" lon="0.05847">
        <ele>915</ele>
        <time>2017-02-19T19:25:35Z</time>
      </trkpt>
      <trkpt lat="42.33591" lon="0.05845">
        <ele>911</ele>
        <time>2017-02-19T19:27:35Z</time>
      </trkpt>
      <trkpt lat="42.33588" lon="0.0589">
        <ele>908</ele>
        <time>2017-02-19T19:29:35Z</time>
      </trkpt>
      <trkpt lat="42.33609" lon="0.05839">
        <ele>907</ele>
        <time>2017-02-19T19:31:35Z</time>
      </trkpt>
      <trkpt lat="42.33647" lon="0.05834">
        <ele>900</ele>
        <time>2017-02-19T19:33:35Z</time>
      </trkpt>
      <trkpt lat="42.33674" lon="0.05789">
        <ele>894</ele>
        <time>2017-02-19T19:35:35Z</time>
      </trkpt>
      <trkpt lat="42.33701" lon="0.05725">
        <ele>883</ele>
        <time>2017-02-19T19:37:35Z</time>
      </trkpt>
      <trkpt lat="42.33747" lon="0.05751">
        <ele>862</ele>
        <time>2017-02-19T19:39:35Z</time>
      </trkpt>
      <trkpt lat="42.33736" lon="0.05699">
        <ele>867</ele>
        <time>2017-02-19T19:41:35Z</time>
      </trkpt>
      <trkpt lat="42.33745" lon="0.05648">
        <ele>863</ele>
        <time>2017-02-19T19:43:35Z</time>
      </trkpt>
      <trkpt lat="42.33775" lon="0.05639">
        <ele>860</ele>
        <time>2017-02-19T19:45:35Z</time>
      </trkpt>
      <trkpt lat="42.33802" lon="0.05639">
        <ele>859</ele>
        <time>2017-02-19T19:47:35Z</time>
      </trkpt>
      <trkpt lat="42.3391" lon="0.0556">
        <ele>871</ele>
        <time>2017-02-19T19:49:35Z</time>
      </trkpt>
      <trkpt lat="42.33988" lon="0.05538">
        <ele>881</ele>
        <time>2017-02-19T19:51:35Z</time>
      </trkpt>
      <trkpt lat="42.34026" lon="0.05545">
        <ele>888</ele>
        <time>2017-02-19T19:53:35Z</time>
      </trkpt>
      <trkpt lat="42.34074" lon="0.05536">
        <ele>897</ele>
        <time>2017-02-19T19:55:35Z</time>
      </trkpt>
      <trkpt lat="42.34104" lon="0.05566">
        <ele>910</ele>
        <time>2017-02-19T19:57:35Z</time>
      </trkpt>
      <trkpt lat="42.34139" lon="0.05566">
        <ele>916</ele>
        <time>2017-02-19T19:59:35Z</time>
      </trkpt>
      <trkpt lat="42.34194" lon="0.05598">
        <ele>927</ele>
        <time>2017-02-19T20:01:35Z</time>
      </trkpt>
      <trkpt lat="42.34364" lon="0.05641">
        <ele>933</ele>
        <time>2017-02-19T20:03:35Z</time>
      </trkpt>
      <trkpt lat="42.34451" lon="0.05761">
        <ele>912</ele>
        <time>2017-02-19T20:05:35Z</time>
      </trkpt>
      <trkpt lat="42.34584" lon="0.0577">
        <ele>912</ele>
        <time>2017-02-19T20:07:35Z</time>
      </trkpt>
      <trkpt lat="42.34652" lon="0.05804">
        <ele>906</ele>
        <time>2017-02-19T20:09:35Z</time>
      </trkpt>
      <trkpt lat="42.34678" lon="0.05768">
        <ele>907</ele>
        <time>2017-02-19T20:11:35Z</time>
      </trkpt>
      <trkpt lat="42.34711" lon="0.0589">
        <ele>887</ele>
        <time>2017-02-19T20:13:35Z</time>
      </trkpt>
      <trkpt lat="42.34749" lon="0.05905">
        <ele>881</ele>
        <time>2017-02-19T20:15:35Z</time>
      </trkpt>
      <trkpt lat="42.34814" lon="0.05918">
        <ele>865</ele>
        <time>2017-02-19T20:17:35Z</time>
      </trkpt>
      <trkpt lat="42.34843" lon="0.05972">
        <ele>853</ele>
        <time>2017-02-19T20:19:35Z</time>
      </trkpt>
      <trkpt lat="42.34906" lon="0.06023">
        <ele>838</ele>
        <time>2017-02-19T20:21:35Z</time>
      </trkpt>
      <trkpt lat="42.35052" lon="0.06004">
        <ele>832</ele>
        <time>2017-02-19T20:23:35Z</time>
      </trkpt>
      <trkpt lat="42.35089" lon="0.06115">
        <ele>815</ele>
        <time>2017-02-19T20:25:35Z</time>
      </trkpt>
      <trkpt lat="42.35122" lon="0.06143">
        <ele>808</ele>
        <time>2017-02-19T20:27:35Z</time>
      </trkpt>
      <trkpt lat="42.3515" lon="0.06173">
        <ele>801</ele>
        <time>2017-02-19T20:29:35Z</time>
      </trkpt>
      <trkpt lat="42.35179" lon="0.061">
        <ele>802</ele>
        <time>2017-02-19T20:31:35Z</time>
      </trkpt>
      <trkpt lat="42.35215" lon="0.05985">
        <ele>811</ele>
        <time>2017-02-19T20:33:35Z</time>
      </trkpt>
      <trkpt lat="42.35271" lon="0.05909">
        <ele>821</ele>
        <time>2017-02-19T20:35:35Z</time>
      </trkpt>
      <trkpt lat="42.35339" lon="0.05852">
        <ele>839</ele>
        <time>2017-02-19T20:37:35Z</time>
      </trkpt>
      <trkpt lat="42.35371" lon="0.05886">
        <ele>836</ele>
        <time>2017-02-19T20:39:35Z</time>
      </trkpt>
      <trkpt lat="42.35399" lon="0.05873">
        <ele>839</ele>
        <time>2017-02-19T20:41:35Z</time>
      </trkpt>
      <trkpt lat="42.35461" lon="0.05862">
        <ele>840</ele>
        <time>2017-02-19T20:43:35Z</time>
      </trkpt>
      <trkpt lat="42.35529" lon="0.05882">
        <ele>833</ele>
        <time>2017-02-19T20:45:35Z</time>
      </trkpt>
      <trkpt lat="42.35582" lon="0.05871">
        <ele>829</ele>
        <time>2017-02-19T20:47:35Z</time>
      </trkpt>
      <trkpt lat="42.35632" lon="0.05882">
        <ele>823</ele>
        <time>2017-02-19T20:49:35Z</time>
      </trkpt>
      <trkpt lat="42.35651" lon="0.05985">
        <ele>814</ele>
        <time>2017-02-19T20:51:35Z</time>
      </trkpt>
      <trkpt lat="42.35628" lon="0.06073">
        <ele>815</ele>
        <time>2017-02-19T20:53:35Z</time>
      </trkpt>
      <trkpt lat="42.35591" lon="0.06133">
        <ele>814</ele>
        <time>2017-02-19T20:55:35Z</time>
      </trkpt>
      <trkpt lat="42.35602" lon="0.0621">
        <ele>813</ele>
        <time>2017-02-19T20:57:35Z</time>
      </trkpt>
      <trkpt lat="42.35628" lon="0.06289">
        <ele>817</ele>
        <time>2017-02-19T20:59:35Z</time>
      </trkpt>
      <trkpt lat="42.35559" lon="0.06366">
        <ele>793</ele>
        <time>2017-02-19T21:01:35Z</time>
      </trkpt>
      <trkpt lat="42.35525" lon="0.06326">
        <ele>788</ele>
        <time>2017-02-19T21:03:35Z</time>
      </trkpt>
      <trkpt lat="42.35436" lon="0.06369">
        <ele>770</ele>
        <time>2017-02-19T21:05:35Z</time>
      </trkpt>
      <trkpt lat="42.35406" lon="0.06502">
        <ele>757</ele>
        <time>2017-02-19T21:07:35Z</time>
      </trkpt>
      <trkpt lat="42.35414" lon="0.0656">
        <ele>756</ele>
        <time>2017-02-19T21:09:35Z</time>
      </trkpt>
      <trkpt lat="42.35344" lon="0.0665">
        <ele>757</ele>
        <time>2017-02-19T21:11:35Z</time>
      </trkpt>
      <trkpt lat="42.35325" lon="0.06738">
        <ele>756</ele>
        <time>2017-02-19T21:13:35Z</time>
      </trkpt>
      <trkpt lat="42.35464" lon="0.068">
        <ele>746</ele>
        <time>2017-02-19T21:15:35Z</time>
      </trkpt>
      <trkpt lat="42.35548" lon="0.06873">
        <ele>743</ele>
        <time>2017-02-19T21:17:35Z</time>
      </trkpt>
      <trkpt lat="42.35617" lon="0.06952">
        <ele>742</ele>
        <time>2017-02-19T21:19:35Z</time>
      </trkpt>
      <trkpt lat="42.35644" lon="0.0706">
        <ele>739</ele>
        <time>2017-02-19T21:21:35Z</time>
      </trkpt>
      <trkpt lat="42.35728" lon="0.07072">
        <ele>739</ele>
        <time>2017-02-19T21:23:35Z</time>
      </trkpt>
      <trkpt lat="42.359" lon="0.06957">
        <ele>754</ele>
        <time>2017-02-19T21:25:35Z</time>
      </trkpt>
      <trkpt lat="42.36045" lon="0.06886">
        <ele>774</ele>
        <time>2017-02-19T21:27:35Z</time>
      </trkpt>
      <trkpt lat="42.36206" lon="0.0689">
        <ele>773</ele>
        <time>2017-02-19T21:29:35Z</time>
      </trkpt>
      <trkpt lat="42.36378" lon="0.06899">
        <ele>752</ele>
        <time>2017-02-19T21:31:35Z</time>
      </trkpt>
      <trkpt lat="42.36549" lon="0.06864">
        <ele>733</ele>
        <time>2017-02-19T21:33:35Z</time>
      </trkpt>
      <trkpt lat="42.36684" lon="0.06847">
        <ele>718</ele>
        <time>2017-02-19T21:35:35Z</time>
      </trkpt>
      <trkpt lat="42.36863" lon="0.06877">
        <ele>701</ele>
        <time>2017-02-19T21:37:35Z</time>
      </trkpt>
      <trkpt lat="42.37048" lon="0.06909">
        <ele>688</ele>
        <time>2017-02-19T21:39:35Z</time>
      </trkpt>
      <trkpt lat="42.37116" lon="0.06877">
        <ele>689</ele>
        <time>2017-02-19T21:41:35Z</time>
      </trkpt>
      <trkpt lat="42.37267" lon="0.06811">
        <ele>711</ele>
        <time>2017-02-19T21:43:35Z</time>
      </trkpt>
      <trkpt lat="42.37387" lon="0.06817">
        <ele>719</ele>
        <time>2017-02-19T21:45:35Z</time>
      </trkpt>
      <trkpt lat="42.3746" lon="0.06809">
        <ele>720</ele>
        <time>2017-02-19T21:47:35Z</time>
      </trkpt>
      <trkpt lat="42.37575" lon="0.06787">
        <ele>718</ele>
        <time>2017-02-19T21:49:35Z</time>
      </trkpt>
      <trkpt lat="42.37701" lon="0.06778">
        <ele>710</ele>
        <time>2017-02-19T21:51:35Z</time>
      </trkpt>
      <trkpt lat="42.37776" lon="0.06789">
        <ele>704</ele>
        <time>2017-02-19T21:53:35Z</time>
      </trkpt>
      <trkpt lat="42.3763" lon="0.06894">
        <ele>709</ele>
        <time>2017-02-19T21:55:35Z</time>
      </trkpt>
      <trkpt lat="42.37524" lon="0.07057">
        <ele>717</ele>
        <time>2017-02-19T21:57:35Z</time>
      </trkpt>
      <trkpt lat="42.37457" lon="0.0718">
        <ele>728</ele>
        <time>2017-02-19T21:59:35Z</time>
      </trkpt>
      <trkpt lat="42.37381" lon="0.07304">
        <ele>748</ele>
        <time>2017-02-19T22:01:35Z</time>
      </trkpt>
      <trkpt lat="42.3737" lon="0.07386">
        <ele>756</ele>
        <time>2017-02-19T22:03:35Z</time>
      </trkpt>
      <trkpt lat="42.37303" lon="0.07472">
        <ele>770</ele>
        <time>2017-02-19T22:05:35Z</time>
      </trkpt>
      <trkpt lat="42.37259" lon="0.07542">
        <ele>779</ele>
        <time>2017-02-19T22:07:35Z</time>
      </trkpt>
      <trkpt lat="42.3731" lon="0.07622">
        <ele>793</ele>
        <time>2017-02-19T22:09:35Z</time>
      </trkpt>
      <trkpt lat="42.37329" lon="0.0768">
        <ele>805</ele>
        <time>2017-02-19T22:11:35Z</time>
      </trkpt>
      <trkpt lat="42.37259" lon="0.07613">
        <ele>788</ele>
        <time>2017-02-19T22:13:35Z</time>
      </trkpt>
      <trkpt lat="42.37191" lon="0.076">
        <ele>778</ele>
        <time>2017-02-19T22:15:35Z</time>
      </trkpt>
      <trkpt lat="42.3715" lon="0.07675">
        <ele>779</ele>
        <time>2017-02-19T22:17:35Z</time>
      </trkpt>
      <trkpt lat="42.37127" lon="0.07742">
        <ele>787</ele>
        <time>2017-02-19T22:19:35Z</time>
      </trkpt>
      <trkpt lat="42.37063" lon="0.07751">
        <ele>795</ele>
        <time>2017-02-19T22:21:35Z</time>
      </trkpt>
      <trkpt lat="42.36963" lon="0.07761">
        <ele>815</ele>
        <time>2017-02-19T22:23:35Z</time>
      </trkpt>
      <trkpt lat="42.36866" lon="0.07735">
        <ele>824</ele>
        <time>2017-02-19T22:25:35Z</time>
      </trkpt>
      <trkpt lat="42.36782" lon="0.07746">
        <ele>828</ele>
        <time>2017-02-19T22:27:35Z</time>
      </trkpt>
      <trkpt lat="42.36658" lon="0.07781">
        <ele>813</ele>
        <time>2017-02-19T22:29:35Z</time>
      </trkpt>
      <trkpt lat="42.36608" lon="0.07946">
        <ele>811</ele>
        <time>2017-02-19T22:31:35Z</time>
      </trkpt>
      <trkpt lat="42.36657" lon="0.0813">
        <ele>820</ele>
        <time>2017-02-19T22:33:35Z</time>
      </trkpt>
      <trkpt lat="42.3665" lon="0.08261">
        <ele>830</ele>
        <time>2017-02-19T22:35:35Z</time>
      </trkpt>
      <trkpt lat="42.36511" lon="0.08429">
        <ele>838</ele>
        <time>2017-02-19T22:37:35Z</time>
      </trkpt>
      <trkpt lat="42.364" lon="0.08478">
        <ele>823</ele>
        <time>2017-02-19T22:39:35Z</time>
      </trkpt>
      <trkpt lat="42.36344" lon="0.08484">
        <ele>816</ele>
        <time>2017-02-19T22:41:35Z</time>
      </trkpt>
      <trkpt lat="42.36317" lon="0.08654">
        <ele>835</ele>
        <time>2017-02-19T22:43:35Z</time>
      </trkpt>
      <trkpt lat="42.36289" lon="0.0875">
        <ele>842</ele>
        <time>2017-02-19T22:45:35Z</time>
      </trkpt>
      <trkpt lat="42.36197" lon="0.08864">
        <ele>848</ele>
        <time>2017-02-19T22:47:35Z</time>
      </trkpt>
      <trkpt lat="42.36167" lon="0.09034">
        <ele>854</ele>
        <time>2017-02-19T22:49:35Z</time>
      </trkpt>
      <trkpt lat="42.36241" lon="0.0915">
        <ele>858</ele>
        <time>2017-02-19T22:51:35Z</time>
      </trkpt>
      <trkpt lat="42.36282" lon="0.09212">
        <ele>861</ele>
        <time>2017-02-19T22:53:35Z</time>
      </trkpt>
      <trkpt lat="42.36357" lon="0.09229">
        <ele>861</ele>
        <time>2017-02-19T22:55:35Z</time>
      </trkpt>
      <trkpt lat="42.36446" lon="0.09225">
        <ele>862</ele>
        <time>2017-02-19T22:57:35Z</time>
      </trkpt>
      <trkpt lat="42.36485" lon="0.0921">
        <ele>862</ele>
        <time>2017-02-19T22:59:35Z</time>
      </trkpt>
      <trkpt lat="42.36523" lon="0.09128">
        <ele>864</ele>
        <time>2017-02-19T23:01:35Z</time>
      </trkpt>
      <trkpt lat="42.3656" lon="0.09113">
        <ele>867</ele>
        <time>2017-02-19T23:03:35Z</time>
      </trkpt>
      <trkpt lat="42.36581" lon="0.09128">
        <ele>868</ele>
        <time>2017-02-19T23:05:35Z</time>
      </trkpt>
      <trkpt lat="42.36625" lon="0.0915">
        <ele>872</ele>
        <time>2017-02-19T23:07:35Z</time>
      </trkpt>
      <trkpt lat="42.36657" lon="0.09158">
        <ele>874</ele>
        <time>2017-02-19T23:09:35Z</time>
      </trkpt>
      <trkpt lat="42.36694" lon="0.09159">
        <ele>875</ele>
        <time>2017-02-19T23:11:35Z</time>
      </trkpt>
      <trkpt lat="42.36695" lon="0.0925">
        <ele>871</ele>
        <time>2017-02-19T23:13:35Z</time>
      </trkpt>
      <trkpt lat="42.36692" lon="0.09358">
        <ele>865</ele>
        <time>2017-02-19T23:15:35Z</time>
      </trkpt>
      <trkpt lat="42.3668" lon="0.0945">
        <ele>862</ele>
        <time>2017-02-19T23:17:35Z</time>
      </trkpt>
      <trkpt lat="42.36676" lon="0.0953">
        <ele>857</ele>
        <time>2017-02-19T23:19:35Z</time>
      </trkpt>
      <trkpt lat="42.36686" lon="0.09587">
        <ele>850</ele>
        <time>2017-02-19T23:21:35Z</time>
      </trkpt>
      <trkpt lat="42.36725" lon="0.0966">
        <ele>842</ele>
        <time>2017-02-19T23:23:35Z</time>
      </trkpt>
      <trkpt lat="42.36783" lon="0.09701">
        <ele>841</ele>
        <time>2017-02-19T23:25:35Z</time>
      </trkpt>
      <trkpt lat="42.36814" lon="0.09737">
        <ele>842</ele>
        <time>2017-02-19T23:27:35Z</time>
      </trkpt>
      <trkpt lat="42.3686" lon="0.09758">
        <ele>842</ele>
        <time>2017-02-19T23:29:35Z</time>
      </trkpt>
      <trkpt lat="42.36895" lon="0.09779">
        <ele>843</ele>
        <time>2017-02-19T23:31:35Z</time>
      </trkpt>
      <trkpt lat="42.3695" lon="0.09808">
        <ele>842</ele>
        <time>2017-02-19T23:33:35Z</time>
      </trkpt>
      <trkpt lat="42.36976" lon="0.0982">
        <ele>842</ele>
        <time>2017-02-19T23:35:35Z</time>
      </trkpt>
      <trkpt lat="42.37012" lon="0.09879">
        <ele>840</ele>
        <time>2017-02-19T23:37:35Z</time>
      </trkpt>
      <trkpt lat="42.37008" lon="0.09912">
        <ele>839</ele>
        <time>2017-02-19T23:39:35Z</time>
      </trkpt>
      <trkpt lat="42.36962" lon="0.09938">
        <ele>838</ele>
        <time>2017-02-19T23:41:35Z</time>
      </trkpt>
      <trkpt lat="42.36942" lon="0.09967">
        <ele>838</ele>
        <time>2017-02-19T23:43:35Z</time>
      </trkpt>
      <trkpt lat="42.36936" lon="0.09996">
        <ele>837</ele>
        <time>2017-02-19T23:45:35Z</time>
      </trkpt>
      <trkpt lat="42.36952" lon="0.10027">
        <ele>834</ele>
        <time>2017-02-19T23:47:35Z</time>
      </trkpt>
      <trkpt lat="42.36961" lon="0.10064">
        <ele>831</ele>
        <time>2017-02-19T23:49:35Z</time>
      </trkpt>
      <trkpt lat="42.36967" lon="0.10108">
        <ele>831</ele>
        <time>2017-02-19T23:51:35Z</time>
      </trkpt>
      <trkpt lat="42.36951" lon="0.10162">
        <ele>837</ele>
        <time>2017-02-19T23:53:35Z</time>
      </trkpt>
      <trkpt lat="42.36921" lon="0.10216">
        <ele>846</ele>
        <time>2017-02-19T23:55:35Z</time>
      </trkpt>
      <trkpt lat="42.36883" lon="0.10234">
        <ele>852</ele>
        <time>2017-02-19T23:57:35Z</time>
      </trkpt>
      <trkpt lat="42.36852" lon="0.10262">
        <ele>857</ele>
        <time>2017-02-19T23:59:35Z</time>
      </trkpt>
      <trkpt lat="42.36815" lon="0.10266">
        <ele>861</ele>
        <time>2017-02-20T00:01:35Z</time>
      </trkpt>
      <trkpt lat="42.36794" lon="0.10263">
        <ele>863</ele>
        <time>2017-02-20T00:03:35Z</time>
      </trkpt>
      <trkpt lat="42.3678" lon="0.10292">
        <ele>866</ele>
        <time>2017-02-20T00:05:35Z</time>
      </trkpt>
      <trkpt lat="42.36769" lon="0.10323">
        <ele>870</ele>
        <time>2017-02-20T00:07:35Z</time>
      </trkpt>
      <trkpt lat="42.36749" lon="0.10339">
        <ele>873</ele>
        <time>2017-02-20T00:09:35Z</time>
      </trkpt>
      <trkpt lat="42.36745" lon="0.10378">
        <ele>877</ele>
        <time>2017-02-20T00:11:35Z</time>
      </trkpt>
      <trkpt lat="42.36744" lon="0.10413">
        <ele>881</ele>
        <time>2017-02-20T00:13:35Z</time>
      </trkpt>
      <trkpt lat="42.36738" lon="0.10456">
        <ele>884</ele>
        <time>2017-02-20T00:15:35Z</time>
      </trkpt>
      <trkpt lat="42.36712" lon="0.10496">
        <ele>887</ele>
        <time>2017-02-20T00:17:35Z</time>
      </trkpt>
      <trkpt lat="42.36691" lon="0.10516">
        <ele>889</ele>
        <time>2017-02-20T00:19:35Z</time>
      </trkpt>
      <trkpt lat="42.3665" lon="0.10532">
        <ele>890</ele>
        <time>2017-02-20T00:21:35Z</time>
      </trkpt>
      <trkpt lat="42.36634" lon="0.10553">
        <ele>893</ele>
        <time>2017-02-20T00:23:35Z</time>
      </trkpt>
      <trkpt lat="42.36618" lon="0.10537">
        <ele>893</ele>
        <time>2017-02-20T00:25:35Z</time>
      </trkpt>
      <trkpt lat="42.366" lon="0.10539">
        <ele>894</ele>
        <time>2017-02-20T00:27:35Z</time>
      </trkpt>
      <trkpt lat="42.36575" lon="0.10583">
        <ele>898</ele>
        <time>2017-02-20T00:29:35Z</time>
      </trkpt>
      <trkpt lat="42.36543" lon="0.10628">
        <ele>902</ele>
        <time>2017-02-20T00:31:35Z</time>
      </trkpt>
      <trkpt lat="42.36517" lon="0.10661">
        <ele>904</ele>
        <time>2017-02-20T00:33:35Z</time>
      </trkpt>
      <trkpt lat="42.36503" lon="0.10681">
        <ele>904</ele>
        <time>2017-02-20T00:35:35Z</time>
      </trkpt>
      <trkpt lat="42.36491" lon="0.10754">
        <ele>906</ele>
        <time>2017-02-20T00:37:35Z</time>
      </trkpt>
      <trkpt lat="42.36478" lon="0.10778">
        <ele>905</ele>
        <time>2017-02-20T00:39:35Z</time>
      </trkpt>
      <trkpt lat="42.36408" lon="0.10793">
        <ele>900</ele>
        <time>2017-02-20T00:41:35Z</time>
      </trkpt>
      <trkpt lat="42.36357" lon="0.10802">
        <ele>897</ele>
        <time>2017-02-20T00:43:35Z</time>
      </trkpt>
      <trkpt lat="42.36309" lon="0.10782">
        <ele>898</ele>
        <time>2017-02-20T00:45:35Z</time>
      </trkpt>
      <trkpt lat="42.36263" lon="0.10759">
        <ele>900</ele>
        <time>2017-02-20T00:47:35Z</time>
      </trkpt>
      <trkpt lat="42.36222" lon="0.10744">
        <ele>900</ele>
        <time>2017-02-20T00:49:35Z</time>
      </trkpt>
      <trkpt lat="42.36175" lon="0.10707">
        <ele>899</ele>
        <time>2017-02-20T00:51:35Z</time>
      </trkpt>
      <trkpt lat="42.36143" lon="0.10746">
        <ele>894</ele>
        <time>2017-02-20T00:53:35Z</time>
      </trkpt>
      <trkpt lat="42.36137" lon="0.10787">
        <ele>891</ele>
        <time>2017-02-20T00:55:35Z</time>
      </trkpt>
      <trkpt lat="42.36124" lon="0.10811">
        <ele>888</ele>
        <time>2017-02-20T00:57:35Z</time>
      </trkpt>
      <trkpt lat="42.36093" lon="0.1081">
        <ele>885</ele>
        <time>2017-02-20T00:59:35Z</time>
      </trkpt>
      <trkpt lat="42.36062" lon="0.10807">
        <ele>883</ele>
        <time>2017-02-20T01:01:35Z</time>
      </trkpt>
      <trkpt lat="42.36038" lon="0.10816">
        <ele>880</ele>
        <time>2017-02-20T01:03:35Z</time>
      </trkpt>
      <trkpt lat="42.36036" lon="0.10843">
        <ele>880</ele>
        <time>2017-02-20T01:05:35Z</time>
      </trkpt>
      <trkpt lat="42.36032" lon="0.10876">
        <ele>880</ele>
        <time>2017-02-20T01:07:35Z</time>
      </trkpt>
      <trkpt lat="42.36019" lon="0.10917">
        <ele>878</ele>
        <time>2017-02-20T01:09:35Z</time>
      </trkpt>
      <trkpt lat="42.35998" lon="0.10946">
        <ele>875</ele>
        <time>2017-02-20T01:11:35Z</time>
      </trkpt>
      <trkpt lat="42.3598" lon="0.10988">
        <ele>869</ele>
        <time>2017-02-20T01:13:35Z</time>
      </trkpt>
      <trkpt lat="42.35957" lon="0.11022">
        <ele>859</ele>
        <time>2017-02-20T01:15:35Z</time>
      </trkpt>
      <trkpt lat="42.35927" lon="0.11079">
        <ele>845</ele>
        <time>2017-02-20T01:17:35Z</time>
      </trkpt>
      <trkpt lat="42.35897" lon="0.1116">
        <ele>834</ele>
        <time>2017-02-20T01:19:35Z</time>
      </trkpt>
      <trkpt lat="42.35873" lon="0.11216">
        <ele>829</ele>
        <time>2017-02-20T01:21:35Z</time>
      </trkpt>
      <trkpt lat="42.35833" lon="0.11282">
        <ele>826</ele>
        <time>2017-02-20T01:23:35Z</time>
      </trkpt>
      <trkpt lat="42.35822" lon="0.11309">
        <ele>831</ele>
        <time>2017-02-20T01:25:35Z</time>
      </trkpt>
      <trkpt lat="42.358" lon="0.11354">
        <ele>835</ele>
        <time>2017-02-20T01:27:35Z</time>
      </trkpt>
      <trkpt lat="42.35774" lon="0.11408">
        <ele>839</ele>
        <time>2017-02-20T01:29:35Z</time>
      </trkpt>
      <trkpt lat="42.35758" lon="0.11433">
        <ele>839</ele>
        <time>2017-02-20T01:31:35Z</time>
      </trkpt>
      <trkpt lat="42.35733" lon="0.11498">
        <ele>839</ele>
        <time>2017-02-20T01:33:35Z</time>
      </trkpt>
      <trkpt lat="42.35717" lon="0.11558">
        <ele>836</ele>
        <time>2017-02-20T01:35:35Z</time>
      </trkpt>
      <trkpt lat="42.35701" lon="0.11628">
        <ele>830</ele>
        <time>2017-02-20T01:37:35Z</time>
      </trkpt>
      <trkpt lat="42.35684" lon="0.1168">
        <ele>828</ele>
        <time>2017-02-20T01:39:35Z</time>
      </trkpt>
      <trkpt lat="42.35651" lon="0.11715">
        <ele>829</ele>
        <time>2017-02-20T01:41:35Z</time>
      </trkpt>
      <trkpt lat="42.35636" lon="0.11748">
        <ele>827</ele>
        <time>2017-02-20T01:43:35Z</time>
      </trkpt>
      <trkpt lat="42.35621" lon="0.1179">
        <ele>822</ele>
        <time>2017-02-20T01:45:35Z</time>
      </trkpt>
      <trkpt lat="42.35609" lon="0.11831">
        <ele>818</ele>
        <time>2017-02-20T01:47:35Z</time>
      </trkpt>
      <trkpt lat="42.35588" lon="0.11888">
        <ele>813</ele>
        <time>2017-02-20T01:49:35Z</time>
      </trkpt>
      <trkpt lat="42.35554" lon="0.11963">
        <ele>808</ele>
        <time>2017-02-20T01:51:35Z</time>
      </trkpt>
      <trkpt lat="42.35529" lon="0.12008">
        <ele>809</ele>
        <time>2017-02-20T01:53:35Z</time>
      </trkpt>
      <trkpt lat="42.35508" lon="0.12035">
        <ele>814</ele>
        <time>2017-02-20T01:55:35Z</time>
      </trkpt>
      <trkpt lat="42.35487" lon="0.12047">
        <ele>817</ele>
        <time>2017-02-20T01:57:35Z</time>
      </trkpt>
      <trkpt lat="42.35448" lon="0.12065">
        <ele>818</ele>
        <time>2017-02-20T01:59:35Z</time>
      </trkpt>
      <trkpt lat="42.35427" lon="0.12097">
        <ele>818</ele>
        <time>2017-02-20T02:01:35Z</time>
      </trkpt>
      <trkpt lat="42.35422" lon="0.12146">
        <ele>818</ele>
        <time>2017-02-20T02:03:35Z</time>
      </trkpt>
      <trkpt lat="42.35418" lon="0.12205">
        <ele>816</ele>
        <time>2017-02-20T02:05:35Z</time>
      </trkpt>
      <trkpt lat="42.35414" lon="0.12266">
        <ele>814</ele>
        <time>2017-02-20T02:07:35Z</time>
      </trkpt>
      <trkpt lat="42.35397" lon="0.12326">
        <ele>809</ele>
        <time>2017-02-20T02:09:35Z</time>
      </trkpt>
      <trkpt lat="42.35402" lon="0.12374">
        <ele>808</ele>
        <time>2017-02-20T02:11:35Z</time>
      </trkpt>
      <trkpt lat="42.35421" lon="0.1241">
        <ele>808</ele>
        <time>2017-02-20T02:13:35Z</time>
      </trkpt>
      <trkpt lat="42.35422" lon="0.12468">
        <ele>806</ele>
        <time>2017-02-20T02:15:35Z</time>
      </trkpt>
      <trkpt lat="42.35403" lon="0.12521">
        <ele>804</ele>
        <time>2017-02-20T02:17:35Z</time>
      </trkpt>
      <trkpt lat="42.35363" lon="0.12536">
        <ele>800</ele>
        <time>2017-02-20T02:19:35Z</time>
      </trkpt>
      <trkpt lat="42.35353" lon="0.12551">
        <ele>799</ele>
        <time>2017-02-20T02:21:35Z</time>
      </trkpt>
      <trkpt lat="42.35342" lon="0.12589">
        <ele>794</ele>
        <time>2017-02-20T02:23:35Z</time>
      </trkpt>
      <trkpt lat="42.3532" lon="0.12612">
        <ele>786</ele>
        <time>2017-02-20T02:25:35Z</time>
      </trkpt>
      <trkpt lat="42.35301" lon="0.12644">
        <ele>778</ele>
        <time>2017-02-20T02:27:35Z</time>
      </trkpt>
      <trkpt lat="42.35269" lon="0.12688">
        <ele>767</ele>
        <time>2017-02-20T02:29:35Z</time>
      </trkpt>
      <trkpt lat="42.35247" lon="0.1273">
        <ele>758</ele>
        <time>2017-02-20T02:31:35Z</time>
      </trkpt>
      <trkpt lat="42.35224" lon="0.12765">
        <ele>753</ele>
        <time>2017-02-20T02:33:35Z</time>
      </trkpt>
      <trkpt lat="42.35191" lon="0.12798">
        <ele>750</ele>
        <time>2017-02-20T02:35:35Z</time>
      </trkpt>
      <trkpt lat="42.3518" lon="0.12809">
        <ele>750</ele>
        <time>2017-02-20T02:37:35Z</time>
      </trkpt>
      <trkpt lat="42.3515" lon="0.12817">
        <ele>751</ele>
        <time>2017-02-20T02:39:35Z</time>
      </trkpt>
      <trkpt lat="42.35122" lon="0.12825">
        <ele>751</ele>
        <time>2017-02-20T02:41:35Z</time>
      </trkpt>
      <trkpt lat="42.35089" lon="0.1286">
        <ele>748</ele>
        <time>2017-02-20T02:43:35Z</time>
      </trkpt>
      <trkpt lat="42.35" lon="0.12898">
        <ele>737</ele>
        <time>2017-02-20T02:45:35Z</time>
      </trkpt>
      <trkpt lat="42.34955" lon="0.12909">
        <ele>731</ele>
        <time>2017-02-20T02:47:35Z</time>
      </trkpt>
      <trkpt lat="42.34917" lon="0.12913">
        <ele>726</ele>
        <time>2017-02-20T02:49:35Z</time>
      </trkpt>
      <trkpt lat="42.34887" lon="0.12922">
        <ele>729</ele>
        <time>2017-02-20T02:51:35Z</time>
      </trkpt>
      <trkpt lat="42.34857" lon="0.12875">
        <ele>736</ele>
        <time>2017-02-20T02:53:35Z</time>
      </trkpt>
      <trkpt lat="42.34828" lon="0.1287">
        <ele>739</ele>
        <time>2017-02-20T02:55:35Z</time>
      </trkpt>
      <trkpt lat="42.348" lon="0.12879">
        <ele>740</ele>
        <time>2017-02-20T02:57:35Z</time>
      </trkpt>
      <trkpt lat="42.34773" lon="0.12926">
        <ele>738</ele>
        <time>2017-02-20T02:59:35Z</time>
      </trkpt>
      <trkpt lat="42.34754" lon="0.12963">
        <ele>737</ele>
        <time>2017-02-20T03:01:35Z</time>
      </trkpt>
      <trkpt lat="42.34755" lon="0.13068">
        <ele>731</ele>
        <time>2017-02-20T03:03:35Z</time>
      </trkpt>
      <trkpt lat="42.34727" lon="0.13205">
        <ele>719</ele>
        <time>2017-02-20T03:05:35Z</time>
      </trkpt>
      <trkpt lat="42.34698" lon="0.13242">
        <ele>716</ele>
        <time>2017-02-20T03:07:35Z</time>
      </trkpt>
      <trkpt lat="42.34662" lon="0.13259">
        <ele>718</ele>
        <time>2017-02-20T03:09:35Z</time>
      </trkpt>
      <trkpt lat="42.34618" lon="0.13284">
        <ele>727</ele>
        <time>2017-02-20T03:11:35Z</time>
      </trkpt>
      <trkpt lat="42.34568" lon="0.13351">
        <ele>741</ele>
        <time>2017-02-20T03:13:35Z</time>
      </trkpt>
      <trkpt lat="42.34583" lon="0.1339">
        <ele>742</ele>
        <time>2017-02-20T03:15:35Z</time>
      </trkpt>
      <trkpt lat="42.34594" lon="0.13445">
        <ele>744</ele>
        <time>2017-02-20T03:17:35Z</time>
      </trkpt>
      <trkpt lat="42.34606" lon="0.13505">
        <ele>747</ele>
        <time>2017-02-20T03:19:35Z</time>
      </trkpt>
      <trkpt lat="42.34611" lon="0.13566">
        <ele>749</ele>
        <time>2017-02-20T03:21:35Z</time>
      </trkpt>
      <trkpt lat="42.34592" lon="0.13638">
        <ele>754</ele>
        <time>2017-02-20T03:23:35Z</time>
      </trkpt>
      <trkpt lat="42.34543" lon="0.1372">
        <ele>755</ele>
        <time>2017-02-20T03:25:35Z</time>
      </trkpt>
      <trkpt lat="42.34486" lon="0.13806">
        <ele>755</ele>
        <time>2017-02-20T03:27:35Z</time>
      </trkpt>
      <trkpt lat="42.34397" lon="0.13872">
        <ele>749</ele>
        <time>2017-02-20T03:29:35Z</time>
      </trkpt>
      <trkpt lat="42.34346" lon="0.13965">
        <ele>741</ele>
        <time>2017-02-20T03:31:35Z</time>
      </trkpt>
      <trkpt lat="42.34315" lon="0.13956">
        <ele>741</ele>
        <time>2017-02-20T03:33:35Z</time>
      </trkpt>
      <trkpt lat="42.34269" lon="0.13935">
        <ele>741</ele>
        <time>2017-02-20T03:35:35Z</time>
      </trkpt>
      <trkpt lat="42.34229" lon="0.1389">
        <ele>741</ele>
        <time>2017-02-20T03:37:35Z</time>
      </trkpt>
      <trkpt lat="42.34248" lon="0.13866">
        <ele>742</ele>
        <time>2017-02-20T03:39:35Z</time>
      </trkpt>
      <trkpt lat="42.34172" lon="0.1387">
        <ele>741</ele>
        <time>2017-02-20T03:41:35Z</time>
      </trkpt>
      <trkpt lat="42.34112" lon="0.13881">
        <ele>739</ele>
        <time>2017-02-20T03:43:35Z</time>
      </trkpt>
      <trkpt lat="42.34088" lon="0.13868">
        <ele>738</ele>
        <time>2017-02-20T03:45:35Z</time>
      </trkpt>
      <trkpt lat="42.34054" lon="0.13898">
        <ele>739</ele>
        <time>2017-02-20T03:47:35Z</time>
      </trkpt>
      <trkpt lat="42.33974" lon="0.13909">
        <ele>740</ele>
        <time>2017-02-20T03:49:35Z</time>
      </trkpt>
      <trkpt lat="42.33932" lon="0.13866">
        <ele>735</ele>
        <time>2017-02-20T03:51:35Z</time>
      </trkpt>
      <trkpt lat="42.33877" lon="0.13881">
        <ele>740</ele>
        <time>2017-02-20T03:53:35Z</time>
      </trkpt>
      <trkpt lat="42.33801" lon="0.13855">
        <ele>743</ele>
        <time>2017-02-20T03:55:35Z</time>
      </trkpt>
      <trkpt lat="42.3375" lon="0.13765">
        <ele>740</ele>
        <time>2017-02-20T03:57:35Z</time>
      </trkpt>
      <trkpt lat="42.33688" lon="0.1378">
        <ele>745</ele>
        <time>2017-02-20T03:59:35Z</time>
      </trkpt>
      <trkpt lat="42.33637" lon="0.13791">
        <ele>742</ele>
        <time>2017-02-20T04:01:35Z</time>
      </trkpt>
      <trkpt lat="42.33591" lon="0.13844">
        <ele>729</ele>
        <time>2017-02-20T04:03:35Z</time>
      </trkpt>
      <trkpt lat="42.33585" lon="0.13902">
        <ele>729</ele>
        <time>2017-02-20T04:05:35Z</time>
      </trkpt>
      <trkpt lat="42.33595" lon="0.14014">
        <ele>739</ele>
        <time>2017-02-20T04:07:35Z</time>
      </trkpt>
      <trkpt lat="42.33568" lon="0.14072">
        <ele>734</ele>
        <time>2017-02-20T04:09:35Z</time>
      </trkpt>
      <trkpt lat="42.33534" lon="0.1416">
        <ele>723</ele>
        <time>2017-02-20T04:11:35Z</time>
      </trkpt>
      <trkpt lat="42.33504" lon="0.14246">
        <ele>727</ele>
        <time>2017-02-20T04:13:35Z</time>
      </trkpt>
      <trkpt lat="42.33458" lon="0.14314">
        <ele>730</ele>
        <time>2017-02-20T04:15:35Z</time>
      </trkpt>
      <trkpt lat="42.33414" lon="0.14319">
        <ele>722</ele>
        <time>2017-02-20T04:17:35Z</time>
      </trkpt>
      <trkpt lat="42.33361" lon="0.14342">
        <ele>714</ele>
        <time>2017-02-20T04:19:35Z</time>
      </trkpt>
      <trkpt lat="42.33352" lon="0.1437">
        <ele>714</ele>
        <time>2017-02-20T04:21:35Z</time>
      </trkpt>
      <trkpt lat="42.33325" lon="0.14381">
        <ele>711</ele>
        <time>2017-02-20T04:23:35Z</time>
      </trkpt>
      <trkpt lat="42.33274" lon="0.14284">
        <ele>703</ele>
        <time>2017-02-20T04:25:35Z</time>
      </trkpt>
      <trkpt lat="42.33193" lon="0.14271">
        <ele>704</ele>
        <time>2017-02-20T04:27:35Z</time>
      </trkpt>
      <trkpt lat="42.33179" lon="0.14229">
        <ele>701</ele>
        <time>2017-02-20T04:29:35Z</time>
      </trkpt>
      <trkpt lat="42.33147" lon="0.14214">
        <ele>701</ele>
        <time>2017-02-20T04:31:35Z</time>
      </trkpt>
      <trkpt lat="42.3313" lon="0.14111">
        <ele>694</ele>
        <time>2017-02-20T04:33:35Z</time>
      </trkpt>
      <trkpt lat="42.33058" lon="0.14025">
        <ele>692</ele>
        <time>2017-02-20T04:35:35Z</time>
      </trkpt>
      <trkpt lat="42.33017" lon="0.13952">
        <ele>687</ele>
        <time>2017-02-20T04:37:35Z</time>
      </trkpt>
      <trkpt lat="42.32973" lon="0.13943">
        <ele>687</ele>
        <time>2017-02-20T04:39:35Z</time>
      </trkpt>
      <trkpt lat="42.32919" lon="0.13898">
        <ele>682</ele>
        <time>2017-02-20T04:41:35Z</time>
      </trkpt>
      <trkpt lat="42.32874" lon="0.13842">
        <ele>675</ele>
        <time>2017-02-20T04:43:35Z</time>
      </trkpt>
      <trkpt lat="42.32808" lon="0.13797">
        <ele>666</ele>
        <time>2017-02-20T04:45:35Z</time>
      </trkpt>
      <trkpt lat="42.32776" lon="0.13767">
        <ele>660</ele>
        <time>2017-02-20T04:47:35Z</time>
      </trkpt>
      <trkpt lat="42.3269" lon="0.13789">
        <ele>651</ele>
        <time>2017-02-20T04:49:35Z</time>
      </trkpt>
      <trkpt lat="42.32651" lon="0.13739">
        <ele>643</ele>
        <time>2017-02-20T04:51:35Z</time>
      </trkpt>
      <trkpt lat="42.32617" lon="0.13726">
        <ele>641</ele>
        <time>2017-02-20T04:53:35Z</time>
      </trkpt>
      <trkpt lat="42.32578" lon="0.13741">
        <ele>640</ele>
        <time>2017-02-20T04:55:35Z</time>
      </trkpt>
      <trkpt lat="42.32486" lon="0.13739">
        <ele>639</ele>
        <time>2017-02-20T04:57:35Z</time>
      </trkpt>
      <trkpt lat="42.32421" lon="0.13767">
        <ele>638</ele>
        <time>2017-02-20T04:59:35Z</time>
      </trkpt>
      <trkpt lat="42.32379" lon="0.13806">
        <ele>632</ele>
        <time>2017-02-20T05:01:35Z</time>
      </trkpt>
      <trkpt lat="42.32351" lon="0.13765">
        <ele>632</ele>
        <time>2017-02-20T05:03:35Z</time>
      </trkpt>
      <trkpt lat="42.32321" lon="0.13735">
        <ele>629</ele>
        <time>2017-02-20T05:05:35Z</time>
      </trkpt>
      <trkpt lat="42.32327" lon="0.13684">
        <ele>627</ele>
        <time>2017-02-20T05:07:35Z</time>
      </trkpt>
      <trkpt lat="42.32346" lon="0.13634">
        <ele>625</ele>
        <time>2017-02-20T05:09:35Z</time>
      </trkpt>
      <trkpt lat="42.32405" lon="0.13613">
        <ele>626</ele>
        <time>2017-02-20T05:11:35Z</time>
      </trkpt>
      <trkpt lat="42.32379" lon="0.13585">
        <ele>622</ele>
        <time>2017-02-20T05:13:35Z</time>
      </trkpt>
      <trkpt lat="42.3234" lon="0.13583">
        <ele>621</ele>
        <time>2017-02-20T05:15:35Z</time>
      </trkpt>
      <trkpt lat="42.32384" lon="0.13555">
        <ele>621</ele>
        <time>2017-02-20T05:17:35Z</time>
      </trkpt>
      <trkpt lat="42.32422" lon="0.13566">
        <ele>622</ele>
        <time>2017-02-20T05:19:35Z</time>
      </trkpt>
      <trkpt lat="42.32451" lon="0.13572">
        <ele>623</ele>
        <time>2017-02-20T05:21:35Z</time>
      </trkpt>
      <trkpt lat="42.32479" lon="0.13538">
        <ele>621</ele>
        <time>2017-02-20T05:23:35Z</time>
      </trkpt>
      <trkpt lat="42.32511" lon="0.13482">
        <ele>620</ele>
        <time>2017-02-20T05:25:35Z</time>
      </trkpt>
      <trkpt lat="42.32554" lon="0.13497">
        <ele>620</ele>
        <time>2017-02-20T05:27:35Z</time>
      </trkpt>
      <trkpt lat="42.32582" lon="0.1349">
        <ele>620</ele>
        <time>2017-02-20T05:29:35Z</time>
      </trkpt>
      <trkpt lat="42.32576" lon="0.13428">
        <ele>621</ele>
        <time>2017-02-20T05:31:35Z</time>
      </trkpt>
      <trkpt lat="42.3259" lon="0.13383">
        <ele>622</ele>
        <time>2017-02-20T05:33:35Z</time>
      </trkpt>
      <trkpt lat="42.32616" lon="0.13317">
        <ele>627</ele>
        <time>2017-02-20T05:35:35Z</time>
      </trkpt>
      <trkpt lat="42.32606" lon="0.13254">
        <ele>628</ele>
        <time>2017-02-20T05:37:35Z</time>
      </trkpt>
      <trkpt lat="42.32635" lon="0.1319">
        <ele>634</ele>
        <time>2017-02-20T05:39:35Z</time>
      </trkpt>
      <trkpt lat="42.32705" lon="0.13121">
        <ele>647</ele>
        <time>2017-02-20T05:41:35Z</time>
      </trkpt>
      <trkpt lat="42.3274" lon="0.13055">
        <ele>651</ele>
        <time>2017-02-20T05:43:35Z</time>
      </trkpt>
      <trkpt lat="42.3277" lon="0.13036">
        <ele>654</ele>
        <time>2017-02-20T05:45:35Z</time>
      </trkpt>
      <trkpt lat="42.32832" lon="0.13023">
        <ele>662</ele>
        <time>2017-02-20T05:47:35Z</time>
      </trkpt>
      <trkpt lat="42.32841" lon="0.12967">
        <ele>657</ele>
        <time>2017-02-20T05:49:35Z</time>
      </trkpt>
      <trkpt lat="42.32909" lon="0.12905">
        <ele>655</ele>
        <time>2017-02-20T05:51:35Z</time>
      </trkpt>
      <trkpt lat="42.3292" lon="0.12834">
        <ele>642</ele>
        <time>2017-02-20T05:53:35Z</time>
      </trkpt>
      <trkpt lat="42.32912" lon="0.12778">
        <ele>640</ele>
        <time>2017-02-20T05:55:35Z</time>
      </trkpt>
      <trkpt lat="42.32939" lon="0.12733">
        <ele>639</ele>
        <time>2017-02-20T05:57:35Z</time>
      </trkpt>
      <trkpt lat="42.33003" lon="0.12744">
        <ele>639</ele>
        <time>2017-02-20T05:59:35Z</time>
      </trkpt>
      <trkpt lat="42.33058" lon="0.1275">
        <ele>639</ele>
        <time>2017-02-20T06:01:35Z</time>
      </trkpt>
      <trkpt lat="42.33112" lon="0.12776">
        <ele>641</ele>
        <time>2017-02-20T06:03:35Z</time>
      </trkpt>
      <trkpt lat="42.33225" lon="0.12776">
        <ele>641</ele>
        <time>2017-02-20T06:05:35Z</time>
      </trkpt>
      <trkpt lat="42.33282" lon="0.12761">
        <ele>641</ele>
        <time>2017-02-20T06:07:35Z</time>
      </trkpt>
      <trkpt lat="42.33325" lon="0.12748">
        <ele>640</ele>
        <time>2017-02-20T06:09:35Z</time>
      </trkpt>
      <trkpt lat="42.33376" lon="0.12754">
        <ele>640</ele>
        <time>2017-02-20T06:11:35Z</time>
      </trkpt>
      <trkpt lat="42.33425" lon="0.12727">
        <ele>640</ele>
        <time>2017-02-20T06:13:35Z</time>
      </trkpt>
      <trkpt lat="42.33452" lon="0.12681">
        <ele>640</ele>
        <time>2017-02-20T06:15:35Z</time>
      </trkpt>
      <trkpt lat="42.33488" lon="0.12594">
        <ele>640</ele>
        <time>2017-02-20T06:17:35Z</time>
      </trkpt>
      <trkpt lat="42.33449" lon="0.12632">
        <ele>640</ele>
        <time>2017-02-20T06:19:35Z</time>
      </trkpt>
      <trkpt lat="42.3343" lon="0.12669">
        <ele>640</ele>
        <time>2017-02-20T06:21:35Z</time>
      </trkpt>
      <trkpt lat="42.33355" lon="0.12673">
        <ele>640</ele>
        <time>2017-02-20T06:23:35Z</time>
      </trkpt>
      <trkpt lat="42.33319" lon="0.1263">
        <ele>642</ele>
        <time>2017-02-20T06:25:35Z</time>
      </trkpt>
      <trkpt lat="42.33274" lon="0.12611">
        <ele>645</ele>
        <time>2017-02-20T06:27:35Z</time>
      </trkpt>
      <trkpt lat="42.33212" lon="0.12594">
        <ele>649</ele>
        <time>2017-02-20T06:29:35Z</time>
      </trkpt>
      <trkpt lat="42.33161" lon="0.12585">
        <ele>651</ele>
        <time>2017-02-20T06:31:35Z</time>
      </trkpt>
      <trkpt lat="42.33122" lon="0.12553">
        <ele>652</ele>
        <time>2017-02-20T06:33:35Z</time>
      </trkpt>
      <trkpt lat="42.33079" lon="0.12525">
        <ele>651</ele>
        <time>2017-02-20T06:35:35Z</time>
      </trkpt>
      <trkpt lat="42.33049" lon="0.12493">
        <ele>651</ele>
        <time>2017-02-20T06:37:35Z</time>
      </trkpt>
      <trkpt lat="42.33008" lon="0.1248">
        <ele>649</ele>
        <time>2017-02-20T06:39:35Z</time>
      </trkpt>
      <trkpt lat="42.33047" lon="0.12452">
        <ele>656</ele>
        <time>2017-02-20T06:41:35Z</time>
      </trkpt>
      <trkpt lat="42.33074" lon="0.124">
        <ele>663</ele>
        <time>2017-02-20T06:43:35Z</time>
      </trkpt>
      <trkpt lat="42.33036" lon="0.1242">
        <ele>659</ele>
        <time>2017-02-20T06:45:35Z</time>
      </trkpt>
      <trkpt lat="42.32987" lon="0.12396">
        <ele>662</ele>
        <time>2017-02-20T06:47:35Z</time>
      </trkpt>
      <trkpt lat="42.32943" lon="0.12364">
        <ele>668</ele>
        <time>2017-02-20T06:49:35Z</time>
      </trkpt>
      <trkpt lat="42.32928" lon="0.12332">
        <ele>674</ele>
        <time>2017-02-20T06:51:35Z</time>
      </trkpt>
      <trkpt lat="42.32858" lon="0.12334">
        <ele>673</ele>
        <time>2017-02-20T06:53:35Z</time>
      </trkpt>
      <trkpt lat="42.32844" lon="0.12263">
        <ele>686</ele>
        <time>2017-02-20T06:55:35Z</time>
      </trkpt>
      <trkpt lat="42.32808" lon="0.12218">
        <ele>697</ele>
        <time>2017-02-20T06:57:35Z</time>
      </trkpt>
      <trkpt lat="42.32779" lon="0.12164">
        <ele>709</ele>
        <time>2017-02-20T06:59:35Z</time>
      </trkpt>
      <trkpt lat="42.32719" lon="0.12184">
        <ele>709</ele>
        <time>2017-02-20T07:01:35Z</time>
      </trkpt>
      <trkpt lat="42.3266" lon="0.12203">
        <ele>710</ele>
        <time>2017-02-20T07:03:35Z</time>
      </trkpt>
      <trkpt lat="42.3264" lon="0.12171">
        <ele>717</ele>
        <time>2017-02-20T07:05:35Z</time>
      </trkpt>
      <trkpt lat="42.32628" lon="0.12126">
        <ele>724</ele>
        <time>2017-02-20T07:07:35Z</time>
      </trkpt>
      <trkpt lat="42.32578" lon="0.12115">
        <ele>725</ele>
        <time>2017-02-20T07:09:35Z</time>
      </trkpt>
      <trkpt lat="42.32517" lon="0.12111">
        <ele>722</ele>
        <time>2017-02-20T07:11:35Z</time>
      </trkpt>
      <trkpt lat="42.32473" lon="0.1207">
        <ele>722</ele>
        <time>2017-02-20T07:13:35Z</time>
      </trkpt>
      <trkpt lat="42.32494" lon="0.12021">
        <ele>723</ele>
        <time>2017-02-20T07:15:35Z</time>
      </trkpt>
      <trkpt lat="42.32511" lon="0.11956">
        <ele>724</ele>
        <time>2017-02-20T07:17:35Z</time>
      </trkpt>
      <trkpt lat="42.32536" lon="0.11911">
        <ele>725</ele>
        <time>2017-02-20T07:19:35Z</time>
      </trkpt>
      <trkpt lat="42.32597" lon="0.11915">
        <ele>734</ele>
        <time>2017-02-20T07:21:35Z</time>
      </trkpt>
      <trkpt lat="42.32693" lon="0.11926">
        <ele>740</ele>
        <time>2017-02-20T07:23:35Z</time>
      </trkpt>
      <trkpt lat="42.32727" lon="0.11896">
        <ele>740</ele>
        <time>2017-02-20T07:25:35Z</time>
      </trkpt>
      <trkpt lat="42.32747" lon="0.11849">
        <ele>742</ele>
        <time>2017-02-20T07:27:35Z</time>
      </trkpt>
      <trkpt lat="42.32839" lon="0.11842">
        <ele>742</ele>
        <time>2017-02-20T07:29:35Z</time>
      </trkpt>
      <trkpt lat="42.32865" lon="0.11825">
        <ele>742</ele>
        <time>2017-02-20T07:31:35Z</time>
      </trkpt>
      <trkpt lat="42.32882" lon="0.11716">
        <ele>743</ele>
        <time>2017-02-20T07:33:35Z</time>
      </trkpt>
      <trkpt lat="42.32933" lon="0.11688">
        <ele>745</ele>
        <time>2017-02-20T07:35:35Z</time>
      </trkpt>
      <trkpt lat="42.32992" lon="0.11688">
        <ele>747</ele>
        <time>2017-02-20T07:37:35Z</time>
      </trkpt>
      <trkpt lat="42.33069" lon="0.1169">
        <ele>760</ele>
        <time>2017-02-20T07:39:35Z</time>
      </trkpt>
      <trkpt lat="42.33101" lon="0.11684">
        <ele>764</ele>
        <time>2017-02-20T07:41:35Z</time>
      </trkpt>
      <trkpt lat="42.33158" lon="0.11632">
        <ele>772</ele>
        <time>2017-02-20T07:43:35Z</time>
      </trkpt>
      <trkpt lat="42.33201" lon="0.11604">
        <ele>770</ele>
        <time>2017-02-20T07:45:35Z</time>
      </trkpt>
      <trkpt lat="42.33228" lon="0.11512">
        <ele>766</ele>
        <time>2017-02-20T07:47:35Z</time>
      </trkpt>
      <trkpt lat="42.33285" lon="0.11473">
        <ele>763</ele>
        <time>2017-02-20T07:49:35Z</time>
      </trkpt>
      <trkpt lat="42.33339" lon="0.11422">
        <ele>762</ele>
        <time>2017-02-20T07:51:35Z</time>
      </trkpt>
      <trkpt lat="42.33368" lon="0.11381">
        <ele>765</ele>
        <time>2017-02-20T07:53:35Z</time>
      </trkpt>
      <trkpt lat="42.33436" lon="0.11321">
        <ele>772</ele>
        <time>2017-02-20T07:55:35Z</time>
      </trkpt>
      <trkpt lat="42.33482" lon="0.11276">
        <ele>774</ele>
        <time>2017-02-20T07:57:35Z</time>
      </trkpt>
      <trkpt lat="42.33526" lon="0.11265">
        <ele>777</ele>
        <time>2017-02-20T07:59:35Z</time>
      </trkpt>
      <trkpt lat="42.33577" lon="0.11209">
        <ele>775</ele>
        <time>2017-02-20T08:01:35Z</time>
      </trkpt>
      <trkpt lat="42.33601" lon="0.1116">
        <ele>772</ele>
        <time>2017-02-20T08:03:35Z</time>
      </trkpt>
      <trkpt lat="42.33655" lon="0.11145">
        <ele>776</ele>
        <time>2017-02-20T08:05:35Z</time>
      </trkpt>
      <trkpt lat="42.33712" lon="0.11132">
        <ele>779</ele>
        <time>2017-02-20T08:07:35Z</time>
      </trkpt>
      <trkpt lat="42.33791" lon="0.11098">
        <ele>784</ele>
        <time>2017-02-20T08:09:35Z</time>
      </trkpt>
      <trkpt lat="42.33839" lon="0.11064">
        <ele>791</ele>
        <time>2017-02-20T08:11:35Z</time>
      </trkpt>
      <trkpt lat="42.33902" lon="0.11061">
        <ele>797</ele>
        <time>2017-02-20T08:13:35Z</time>
      </trkpt>
      <trkpt lat="42.33942" lon="0.10976">
        <ele>806</ele>
        <time>2017-02-20T08:15:35Z</time>
      </trkpt>
      <trkpt lat="42.34024" lon="0.10875">
        <ele>818</ele>
        <time>2017-02-20T08:17:35Z</time>
      </trkpt>
      <trkpt lat="42.34056" lon="0.10819">
        <ele>820</ele>
        <time>2017-02-20T08:19:35Z</time>
      </trkpt>
      <trkpt lat="42.34105" lon="0.10798">
        <ele>821</ele>
        <time>2017-02-20T08:21:35Z</time>
      </trkpt>
      <trkpt lat="42.34158" lon="0.10787">
        <ele>821</ele>
        <time>2017-02-20T08:23:35Z</time>
      </trkpt>
      <trkpt lat="42.34205" lon="0.10759">
        <ele>822</ele>
        <time>2017-02-20T08:25:35Z</time>
      </trkpt>
      <trkpt lat="42.34277" lon="0.1074">
        <ele>824</ele>
        <time>2017-02-20T08:27:35Z</time>
      </trkpt>
      <trkpt lat="42.34334" lon="0.10748">
        <ele>821</ele>
        <time>2017-02-20T08:29:35Z</time>
      </trkpt>
      <trkpt lat="42.34389" lon="0.10776">
        <ele>826</ele>
        <time>2017-02-20T08:31:35Z</time>
      </trkpt>
      <trkpt lat="42.34445" lon="0.10742">
        <ele>835</ele>
        <time>2017-02-20T08:33:35Z</time>
      </trkpt>
      <trkpt lat="42.34506" lon="0.10675">
        <ele>841</ele>
        <time>2017-02-20T08:35:35Z</time>
      </trkpt>
      <trkpt lat="42.34546" lon="0.10607">
        <ele>847</ele>
        <time>2017-02-20T08:37:35Z</time>
      </trkpt>
      <trkpt lat="42.346" lon="0.10594">
        <ele>853</ele>
        <time>2017-02-20T08:39:35Z</time>
      </trkpt>
      <trkpt lat="42.34635" lon="0.10553">
        <ele>857</ele>
        <time>2017-02-20T08:41:35Z</time>
      </trkpt>
      <trkpt lat="42.34705" lon="0.10536">
        <ele>862</ele>
        <time>2017-02-20T08:43:35Z</time>
      </trkpt>
      <trkpt lat="42.34748" lon="0.10441">
        <ele>871</ele>
        <time>2017-02-20T08:45:35Z</time>
      </trkpt>
      <trkpt lat="42.34763" lon="0.10394">
        <ele>875</ele>
        <time>2017-02-20T08:47:35Z</time>
      </trkpt>
      <trkpt lat="42.34819" lon="0.10338">
        <ele>879</ele>
        <time>2017-02-20T08:49:35Z</time>
      </trkpt>
      <trkpt lat="42.3484" lon="0.10265">
        <ele>880</ele>
        <time>2017-02-20T08:51:35Z</time>
      </trkpt>
      <trkpt lat="42.34857" lon="0.10192">
        <ele>881</ele>
        <time>2017-02-20T08:53:35Z</time>
      </trkpt>
      <trkpt lat="42.3489" lon="0.10119">
        <ele>882</ele>
        <time>2017-02-20T08:55:35Z</time>
      </trkpt>
      <trkpt lat="42.34911" lon="0.10019">
        <ele>884</ele>
        <time>2017-02-20T08:57:35Z</time>
      </trkpt>
      <trkpt lat="42.34919" lon="0.09967">
        <ele>884</ele>
        <time>2017-02-20T08:59:35Z</time>
      </trkpt>
      <trkpt lat="42.349" lon="0.09877">
        <ele>884</ele>
        <time>2017-02-20T09:01:35Z</time>
      </trkpt>
      <trkpt lat="42.34905" lon="0.09804">
        <ele>887</ele>
        <time>2017-02-20T09:03:35Z</time>
      </trkpt>
      <trkpt lat="42.34944" lon="0.09731">
        <ele>890</ele>
        <time>2017-02-20T09:05:35Z</time>
      </trkpt>
      <trkpt lat="42.34963" lon="0.09654">
        <ele>894</ele>
        <time>2017-02-20T09:07:35Z</time>
      </trkpt>
      <trkpt lat="42.34958" lon="0.09568">
        <ele>896</ele>
        <time>2017-02-20T09:09:35Z</time>
      </trkpt>
      <trkpt lat="42.34946" lon="0.09467">
        <ele>899</ele>
        <time>2017-02-20T09:11:35Z</time>
      </trkpt>
      <trkpt lat="42.34922" lon="0.09403">
        <ele>901</ele>
        <time>2017-02-20T09:13:35Z</time>
      </trkpt>
      <trkpt lat="42.34868" lon="0.09147">
        <ele>907</ele>
        <time>2017-02-20T09:15:35Z</time>
      </trkpt>
      <trkpt lat="42.34835" lon="0.08982">
        <ele>919</ele>
        <time>2017-02-20T09:17:35Z</time>
      </trkpt>
      <trkpt lat="42.34803" lon="0.08808">
        <ele>925</ele>
        <time>2017-02-20T09:19:35Z</time>
      </trkpt>
      <trkpt lat="42.34792" lon="0.08693">
        <ele>932</ele>
        <time>2017-02-20T09:21:35Z</time>
      </trkpt>
      <trkpt lat="42.34762" lon="0.08632">
        <ele>938</ele>
        <time>2017-02-20T09:23:35Z</time>
      </trkpt>
      <trkpt lat="42.34717" lon="0.08609">
        <ele>939</ele>
        <time>2017-02-20T09:25:35Z</time>
      </trkpt>
      <trkpt lat="42.34659" lon="0.08662">
        <ele>936</ele>
        <time>2017-02-20T09:27:35Z</time>
      </trkpt>
      <trkpt lat="42.346" lon="0.08708">
        <ele>934</ele>
        <time>2017-02-20T09:29:35Z</time>
      </trkpt>
      <trkpt lat="42.34527" lon="0.08718">
        <ele>937</ele>
        <time>2017-02-20T09:31:35Z</time>
      </trkpt>
      <trkpt lat="42.34451" lon="0.08746">
        <ele>941</ele>
        <time>2017-02-20T09:33:35Z</time>
      </trkpt>
      <trkpt lat="42.34372" lon="0.08742">
        <ele>946</ele>
        <time>2017-02-20T09:35:35Z</time>
      </trkpt>
      <trkpt lat="42.34315" lon="0.0874">
        <ele>949</ele>
        <time>2017-02-20T09:37:35Z</time>
      </trkpt>
      <trkpt lat="42.34259" lon="0.08763">
        <ele>949</ele>
        <time>2017-02-20T09:39:35Z</time>
      </trkpt>
      <trkpt lat="42.34197" lon="0.08787">
        <ele>947</ele>
        <time>2017-02-20T09:41:35Z</time>
      </trkpt>
      <trkpt lat="42.34151" lon="0.0878">
        <ele>948</ele>
        <time>2017-02-20T09:43:35Z</time>
      </trkpt>
      <trkpt lat="42.3417" lon="0.08667">
        <ele>953</ele>
        <time>2017-02-20T09:45:35Z</time>
      </trkpt>
      <trkpt lat="42.3415" lon="0.08611">
        <ele>958</ele>
        <time>2017-02-20T09:47:35Z</time>
      </trkpt>
      <trkpt lat="42.34107" lon="0.08592">
        <ele>965</ele>
        <time>2017-02-20T09:49:35Z</time>
      </trkpt>
      <trkpt lat="42.34062" lon="0.08549">
        <ele>975</ele>
        <time>2017-02-20T09:51:35Z</time>
      </trkpt>
      <trkpt lat="42.34035" lon="0.08467">
        <ele>985</ele>
        <time>2017-02-20T09:53:35Z</time>
      </trkpt>
      <trkpt lat="42.33989" lon="0.08484">
        <ele>989</ele>
        <time>2017-02-20T09:55:35Z</time>
      </trkpt>
      <trkpt lat="42.33929" lon="0.08534">
        <ele>988</ele>
        <time>2017-02-20T09:57:35Z</time>
      </trkpt>
      <trkpt lat="42.33875" lon="0.08564">
        <ele>989</ele>
        <time>2017-02-20T09:59:35Z</time>
      </trkpt>
      <trkpt lat="42.33796" lon="0.08577">
        <ele>997</ele>
        <time>2017-02-20T10:01:35Z</time>
      </trkpt>
      <trkpt lat="42.33744" lon="0.0863">
        <ele>997</ele>
        <time>2017-02-20T10:03:35Z</time>
      </trkpt>
      <trkpt lat="42.33675" lon="0.08677">
        <ele>998</ele>
        <time>2017-02-20T10:05:35Z</time>
      </trkpt>
      <trkpt lat="42.33604" lon="0.08695">
        <ele>1005</ele>
        <time>2017-02-20T10:07:35Z</time>
      </trkpt>
      <trkpt lat="42.33547" lon="0.08725">
        <ele>1009</ele>
        <time>2017-02-20T10:09:35Z</time>
      </trkpt>
      <trkpt lat="42.33472" lon="0.08735">
        <ele>1017</ele>
        <time>2017-02-20T10:11:35Z</time>
      </trkpt>
      <trkpt lat="42.33412" lon="0.08746">
        <ele>1020</ele>
        <time>2017-02-20T10:13:35Z</time>
      </trkpt>
      <trkpt lat="42.3335" lon="0.088">
        <ele>1019</ele>
        <time>2017-02-20T10:15:35Z</time>
      </trkpt>
      <trkpt lat="42.33295" lon="0.08823">
        <ele>1020</ele>
        <time>2017-02-20T10:17:35Z</time>
      </trkpt>
      <trkpt lat="42.33242" lon="0.08847">
        <ele>1019</ele>
        <time>2017-02-20T10:19:35Z</time>
      </trkpt>
      <trkpt lat="42.33193" lon="0.08868">
        <ele>1018</ele>
        <time>2017-02-20T10:21:35Z</time>
      </trkpt>
      <trkpt lat="42.33139" lon="0.08918">
        <ele>1017</ele>
        <time>2017-02-20T10:23:35Z</time>
      </trkpt>
      <trkpt lat="42.3309" lon="0.0898">
        <ele>1008</ele>
        <time>2017-02-20T10:25:35Z</time>
      </trkpt>
      <trkpt lat="42.33047" lon="0.09066">
        <ele>987</ele>
        <time>2017-02-20T10:27:35Z</time>
      </trkpt>
      <trkpt lat="42.32996" lon="0.09094">
        <ele>979</ele>
        <time>2017-02-20T10:29:35Z</time>
      </trkpt>
      <trkpt lat="42.32949" lon="0.09135">
        <ele>970</ele>
        <time>2017-02-20T10:31:35Z</time>
      </trkpt>
      <trkpt lat="42.32893" lon="0.09124">
        <ele>965</ele>
        <time>2017-02-20T10:33:35Z</time>
      </trkpt>
      <trkpt lat="42.32898" lon="0.09017">
        <ele>973</ele>
        <time>2017-02-20T10:35:35Z</time>
      </trkpt>
      <trkpt lat="42.32911" lon="0.0892">
        <ele>981</ele>
        <time>2017-02-20T10:37:35Z</time>
      </trkpt>
      <trkpt lat="42.32924" lon="0.08823">
        <ele>984</ele>
        <time>2017-02-20T10:39:35Z</time>
      </trkpt>
      <trkpt lat="42.32893" lon="0.0878">
        <ele>974</ele>
        <time>2017-02-20T10:41:35Z</time>
      </trkpt>
      <trkpt lat="42.32885" lon="0.08688">
        <ele>965</ele>
        <time>2017-02-20T10:43:35Z</time>
      </trkpt>
      <trkpt lat="42.32898" lon="0.08602">
        <ele>960</ele>
        <time>2017-02-20T10:45:35Z</time>
      </trkpt>
      <trkpt lat="42.32936" lon="0.08517">
        <ele>956</ele>
        <time>2017-02-20T10:47:35Z</time>
      </trkpt>
      <trkpt lat="42.3299" lon="0.08469">
        <ele>955</ele>
        <time>2017-02-20T10:49:35Z</time>
      </trkpt>
      <trkpt lat="42.32985" lon="0.08388">
        <ele>943</ele>
        <time>2017-02-20T10:51:35Z</time>
      </trkpt>
      <trkpt lat="42.33017" lon="0.08321">
        <ele>936</ele>
        <time>2017-02-20T10:53:35Z</time>
      </trkpt>
      <trkpt lat="42.33027" lon="0.08248">
        <ele>926</ele>
        <time>2017-02-20T10:55:35Z</time>
      </trkpt>
      <trkpt lat="42.33014" lon="0.08169">
        <ele>913</ele>
        <time>2017-02-20T10:57:35Z</time>
      </trkpt>
      <trkpt lat="42.33036" lon="0.08107">
        <ele>908</ele>
        <time>2017-02-20T10:59:35Z</time>
      </trkpt>
      <trkpt lat="42.33085" lon="0.08051">
        <ele>907</ele>
        <time>2017-02-20T11:01:35Z</time>
      </trkpt>
      <trkpt lat="42.33149" lon="0.07972">
        <ele>896</ele>
        <time>2017-02-20T11:03:35Z</time>
      </trkpt>
      <trkpt lat="42.33179" lon="0.07929">
        <ele>893</ele>
        <time>2017-02-20T11:05:35Z</time>
      </trkpt>
      <trkpt lat="42.33163" lon="0.07892">
        <ele>890</ele>
        <time>2017-02-20T11:07:35Z</time>
      </trkpt>
      <trkpt lat="42.33122" lon="0.07916">
        <ele>891</ele>
        <time>2017-02-20T11:09:35Z</time>
      </trkpt>
      <trkpt lat="42.3303" lon="0.07939">
        <ele>884</ele>
        <time>2017-02-20T11:11:35Z</time>
      </trkpt>
      <trkpt lat="42.32993" lon="0.07918">
        <ele>875</ele>
        <time>2017-02-20T11:13:35Z</time>
      </trkpt>
      <trkpt lat="42.32981" lon="0.07836">
        <ele>867</ele>
        <time>2017-02-20T11:15:35Z</time>
      </trkpt>
      <trkpt lat="42.32939" lon="0.07811">
        <ele>860</ele>
        <time>2017-02-20T11:17:35Z</time>
      </trkpt>
      <trkpt lat="42.32917" lon="0.07772">
        <ele>858</ele>
        <time>2017-02-20T11:19:35Z</time>
      </trkpt>
      <trkpt lat="42.3289" lon="0.0771">
        <ele>858</ele>
        <time>2017-02-20T11:21:35Z</time>
      </trkpt>
      <trkpt lat="42.32855" lon="0.0766">
        <ele>860</ele>
        <time>2017-02-20T11:23:35Z</time>
      </trkpt>
      <trkpt lat="42.3282" lon="0.07635">
        <ele>862</ele>
        <time>2017-02-20T11:25:35Z</time>
      </trkpt>
      <trkpt lat="42.32836" lon="0.07587">
        <ele>864</ele>
        <time>2017-02-20T11:27:35Z</time>
      </trkpt>
      <trkpt lat="42.32876" lon="0.07525">
        <ele>863</ele>
        <time>2017-02-20T11:29:35Z</time>
      </trkpt>
      <trkpt lat="42.32817" lon="0.07476">
        <ele>867</ele>
        <time>2017-02-20T11:31:35Z</time>
      </trkpt>
      <trkpt lat="42.32797" lon="0.07437">
        <ele>868</ele>
        <time>2017-02-20T11:33:35Z</time>
      </trkpt>
      <trkpt lat="42.32776" lon="0.07379">
        <ele>869</ele>
        <time>2017-02-20T11:35:35Z</time>
      </trkpt>
      <trkpt lat="42.32766" lon="0.07328">
        <ele>870</ele>
        <time>2017-02-20T11:37:35Z</time>
      </trkpt>
      <trkpt lat="42.32773" lon="0.07281">
        <ele>871</ele>
        <time>2017-02-20T11:39:35Z</time>
      </trkpt>
      <trkpt lat="42.32732" lon="0.07259">
        <ele>870</ele>
        <time>2017-02-20T11:41:35Z</time>
      </trkpt>
      <trkpt lat="42.32681" lon="0.0719">
        <ele>866</ele>
        <time>2017-02-20T11:43:35Z</time>
      </trkpt>
      <trkpt lat="42.32638" lon="0.07199">
        <ele>863</ele>
        <time>2017-02-20T11:45:35Z</time>
      </trkpt>
      <trkpt lat="42.32589" lon="0.07223">
        <ele>860</ele>
        <time>2017-02-20T11:47:35Z</time>
      </trkpt>
      <trkpt lat="42.32565" lon="0.07293">
        <ele>857</ele>
        <time>2017-02-20T11:49:35Z</time>
      </trkpt>
      <trkpt lat="42.32516" lon="0.07315">
        <ele>852</ele>
        <time>2017-02-20T11:51:35Z</time>
      </trkpt>
      <trkpt lat="42.32527" lon="0.07244">
        <ele>860</ele>
        <time>2017-02-20T11:53:35Z</time>
      </trkpt>
      <trkpt lat="42.32548" lon="0.07143">
        <ele>866</ele>
        <time>2017-02-20T11:55:35Z</time>
      </trkpt>
      <trkpt lat="42.32581" lon="0.07068">
        <ele>868</ele>
        <time>2017-02-20T11:57:35Z</time>
      </trkpt>
      <trkpt lat="42.32611" lon="0.0701">
        <ele>872</ele>
        <time>2017-02-20T11:59:35Z</time>
      </trkpt>
      <trkpt lat="42.32643" lon="0.0695">
        <ele>877</ele>
        <time>2017-02-20T12:01:35Z</time>
      </trkpt>
      <trkpt lat="42.3269" lon="0.06931">
        <ele>878</ele>
        <time>2017-02-20T12:03:35Z</time>
      </trkpt>
      <trkpt lat="42.32736" lon="0.06888">
        <ele>881</ele>
        <time>2017-02-20T12:05:35Z</time>
      </trkpt>
      <trkpt lat="42.32762" lon="0.06843">
        <ele>882</ele>
        <time>2017-02-20T12:07:35Z</time>
      </trkpt>
      <trkpt lat="42.32755" lon="0.06778">
        <ele>884</ele>
        <time>2017-02-20T12:09:35Z</time>
      </trkpt>
      <trkpt lat="42.32793" lon="0.06738">
        <ele>884</ele>
        <time>2017-02-20T12:11:35Z</time>
      </trkpt>
      <trkpt lat="42.32832" lon="0.06693">
        <ele>885</ele>
        <time>2017-02-20T12:13:35Z</time>
      </trkpt>
      <trkpt lat="42.32863" lon="0.06633">
        <ele>887</ele>
        <time>2017-02-20T12:15:35Z</time>
      </trkpt>
      <trkpt lat="42.32904" lon="0.06572">
        <ele>890</ele>
        <time>2017-02-20T12:17:35Z</time>
      </trkpt>
      <trkpt lat="42.32911" lon="0.06523">
        <ele>893</ele>
        <time>2017-02-20T12:19:35Z</time>
      </trkpt>
      <trkpt lat="42.32897" lon="0.06446">
        <ele>896</ele>
        <time>2017-02-20T12:21:35Z</time>
      </trkpt>
      <trkpt lat="42.32895" lon="0.06349">
        <ele>902</ele>
        <time>2017-02-20T12:23:35Z</time>
      </trkpt>
      <trkpt lat="42.32885" lon="0.06283">
        <ele>907</ele>
        <time>2017-02-20T12:25:35Z</time>
      </trkpt>
      <trkpt lat="42.32941" lon="0.06231">
        <ele>917</ele>
        <time>2017-02-20T12:27:35Z</time>
      </trkpt>
      <trkpt lat="42.32987" lon="0.06145">
        <ele>931</ele>
        <time>2017-02-20T12:29:35Z</time>
      </trkpt>
      <trkpt lat="42.33036" lon="0.06107">
        <ele>934</ele>
        <time>2017-02-20T12:31:35Z</time>
      </trkpt>
      <trkpt lat="42.33095" lon="0.06077">
        <ele>930</ele>
        <time>2017-02-20T12:33:35Z</time>
      </trkpt>
      <trkpt lat="42.33149" lon="0.06062">
        <ele>921</ele>
        <time>2017-02-20T12:35:35Z</time>
      </trkpt>
      <trkpt lat="42.33204" lon="0.05995">
        <ele>924</ele>
        <time>2017-02-20T12:37:35Z</time>
      </trkpt>
      <trkpt lat="42.3322" lon="0.0595">
        <ele>929</ele>
        <time>2017-02-20T12:39:35Z</time>
      </trkpt>
      <trkpt lat="42.33253" lon="0.05905">
        <ele>935</ele>
        <time>2017-02-20T12:41:35Z</time>
      </trkpt>
      <trkpt lat="42.33298" lon="0.05873">
        <ele>941</ele>
        <time>2017-02-20T12:43:35Z</time>
      </trkpt>
      <trkpt lat="42.3335" lon="0.05856">
        <ele>944</ele>
        <time>2017-02-20T12:45:35Z</time>
      </trkpt>
      <trkpt lat="42.33374" lon="0.05832">
        <ele>946</ele>
        <time>2017-02-20T12:47:35Z</time>
      </trkpt>
      <trkpt lat="42.33388" lon="0.05781">
        <ele>954</ele>
        <time>2017-02-20T12:49:35Z</time>
      </trkpt>
      <trkpt lat="42.33446" lon="0.05719">
        <ele>954</ele>
        <time>2017-02-20T12:51:35Z</time>
      </trkpt>
    </trkseg>
  </trk>
</gpx>